YSYN weather

Strathalbyn Airport
South Australia, Australia

Public forecast

Using degrees Celsius for public forecast. Weather courtesy of forecast.io.

Closest aviation weather report (METAR) to Strathalbyn Airport

Closest report is Adelaide International Airport, 31.5 nm (58.4 km) NW. Retrieved 2020/02/25 00:00 UTC (12 minutes ago):

YPAD 250000Z 25007KT CAVOK 23/16 Q1014 NOSIG

Closest aviation forecast (TAF) to Strathalbyn Airport

Closest forecast is Adelaide International Airport, 31.5 nm (58.4 km) NW. Retrieved 2020-02-25 00:00 UTC (12 minutes ago):

TAF YPAD 242319Z 2500/2606 22014KT CAVOK FM251100 17006KT CAVOK FM251500 VRB05KT 9999 BKN020 FM251800 20014KT 9999 -SHRA BKN025 FM260300 22014KT 9999 NSW SCT040 INTER 2600/2603 5000 SHRA SCT015 BKN020